createdAt,value
2018-03-04T00:02:26.671Z,43.65
2018-03-04T00:04:55.636Z,44.52
2018-03-04T00:07:24.631Z,44.86
2018-03-04T00:09:53.668Z,45.26
2018-03-04T00:13:51.711Z,45.65
2018-03-04T00:16:20.670Z,45.89
2018-03-04T00:18:49.671Z,44.88
2018-03-04T00:21:18.692Z,43.68
2018-03-04T00:23:47.723Z,43.17
2018-03-04T00:26:17.158Z,43.34
2018-03-04T00:28:46.669Z,42.99
2018-03-04T00:31:15.717Z,43.20
2018-03-04T00:33:44.683Z,44.19
2018-03-04T00:36:13.674Z,44.83
2018-03-04T00:38:42.700Z,45.21
2018-03-04T00:41:11.687Z,46.01
2018-03-04T00:43:40.723Z,46.05
2018-03-04T00:46:09.677Z,46.04
2018-03-04T00:48:38.715Z,46.00
2018-03-04T00:51:07.727Z,44.63
2018-03-04T00:53:36.693Z,43.62
2018-03-04T00:56:05.711Z,42.60
2018-03-04T00:58:34.684Z,42.46
2018-03-04T01:01:03.701Z,43.35
2018-03-04T01:03:32.677Z,44.54
2018-03-04T01:06:01.665Z,44.95
2018-03-04T01:08:30.642Z,45.21
2018-03-04T01:10:59.701Z,45.42
2018-03-04T01:13:28.699Z,45.79
2018-03-04T01:15:57.732Z,46.12
2018-03-04T01:18:26.639Z,44.22
2018-03-04T01:20:55.704Z,43.50
2018-03-04T01:23:24.651Z,43.10
2018-03-04T01:28:04.640Z,42.97
2018-03-04T01:30:33.690Z,43.71
2018-03-04T01:35:28.743Z,45.71
2018-03-04T01:37:57.726Z,45.63
2018-03-04T01:40:26.773Z,45.57
2018-03-04T01:44:38.637Z,45.68
2018-03-04T01:47:07.675Z,45.63
2018-03-04T01:49:36.673Z,44.34
2018-03-04T01:52:05.639Z,42.87
2018-03-04T01:54:34.627Z,42.23
2018-03-04T01:57:03.639Z,42.22
2018-03-04T02:00:30.698Z,43.81
2018-03-04T02:02:59.674Z,44.58
2018-03-04T02:05:28.664Z,44.84
2018-03-04T02:07:57.687Z,45.16
2018-03-04T02:10:26.729Z,45.33
2018-03-04T02:15:08.689Z,45.05
2018-03-04T02:17:37.667Z,43.77
2018-03-04T02:20:06.725Z,42.95
2018-03-04T02:22:35.691Z,42.86
2018-03-04T02:25:04.705Z,42.82
2018-03-04T02:27:33.790Z,42.59
2018-03-04T02:30:02.778Z,43.67
2018-03-04T02:32:31.743Z,44.35
2018-03-04T02:35:00.773Z,44.88
2018-03-04T02:39:06.837Z,45.08
2018-03-04T02:41:35.743Z,45.09
2018-03-04T02:44:04.751Z,45.25
2018-03-04T02:46:34.448Z,44.44
2018-03-04T02:49:03.540Z,43.38
2018-03-04T02:57:46.501Z,42.12
2018-03-04T03:01:48.525Z,43.88
2018-03-04T03:04:17.649Z,44.44
2018-03-04T03:06:46.655Z,44.86
2018-03-04T03:09:15.763Z,45.50
2018-03-04T03:11:45.282Z,45.66
2018-03-04T03:14:14.289Z,45.70
2018-03-04T03:16:42.748Z,44.34
2018-03-04T03:19:42.593Z,43.22
2018-03-04T03:24:09.570Z,42.74
2018-03-04T03:26:38.645Z,42.17
2018-03-04T03:29:07.681Z,43.12
2018-03-04T03:31:36.647Z,44.27
2018-03-04T03:34:05.621Z,44.63
2018-03-04T03:36:34.627Z,44.61
2018-03-04T03:39:03.631Z,44.75
2018-03-04T03:41:32.697Z,44.90
2018-03-04T03:44:01.693Z,44.96
2018-03-04T03:46:30.652Z,44.89
2018-03-04T03:48:59.661Z,43.45
2018-03-04T03:51:28.655Z,42.55
2018-03-04T03:53:57.675Z,41.99
2018-03-04T03:56:26.639Z,42.09
2018-03-04T03:58:55.647Z,41.91
2018-03-04T04:01:24.628Z,43.29
2018-03-04T04:04:24.032Z,44.14
2018-03-04T04:06:52.743Z,44.37
2018-03-04T04:09:21.645Z,44.57
2018-03-04T04:11:50.743Z,44.78
2018-03-04T04:14:19.777Z,44.93
2018-03-04T04:16:48.742Z,44.66
2018-03-04T04:19:17.662Z,43.40
2018-03-04T04:22:24.687Z,42.30
2018-03-04T04:24:53.626Z,41.71
2018-03-04T04:27:22.654Z,41.72
2018-03-04T04:29:51.721Z,42.21
2018-03-04T04:32:20.763Z,43.25
2018-03-04T04:34:49.744Z,43.23
2018-03-04T04:37:18.895Z,43.63
2018-03-04T04:39:48.172Z,43.80
2018-03-04T04:42:16.710Z,44.06
2018-03-04T04:44:45.876Z,44.20
2018-03-04T04:47:15.567Z,43.31
2018-03-04T04:49:44.776Z,41.38
2018-03-04T04:52:13.886Z,40.50
2018-03-04T04:54:42.630Z,40.32
2018-03-04T04:57:11.679Z,39.96
2018-03-04T04:59:40.804Z,40.01
2018-03-04T05:02:09.721Z,41.15
2018-03-04T05:04:38.756Z,42.68
2018-03-04T05:07:54.767Z,43.73
2018-03-04T05:10:23.796Z,43.97
2018-03-04T05:12:52.776Z,44.57
2018-03-04T05:16:50.521Z,44.05
2018-03-04T05:19:19.679Z,42.25
2018-03-04T05:21:48.734Z,40.99
2018-03-04T05:24:17.680Z,40.50
2018-03-04T05:26:46.775Z,40.18
2018-03-04T05:29:15.676Z,40.25
2018-03-04T05:31:44.683Z,41.07
2018-03-04T05:34:13.735Z,42.47
2018-03-04T05:36:42.679Z,43.11
2018-03-04T05:41:00.730Z,43.66
2018-03-04T05:43:29.720Z,44.08
2018-03-04T05:45:58.687Z,44.19
2018-03-04T05:48:27.705Z,43.17
2018-03-04T05:50:56.688Z,41.30
2018-03-04T05:53:25.738Z,40.69
2018-03-04T05:57:48.666Z,40.05
2018-03-04T06:00:17.655Z,40.23
2018-03-04T06:02:46.674Z,41.10
2018-03-04T06:05:15.743Z,42.70
2018-03-04T06:11:22.438Z,44.25
2018-03-04T06:13:51.443Z,44.40
2018-03-04T06:16:20.437Z,44.33
2018-03-04T06:18:49.647Z,42.10
2018-03-04T06:21:18.652Z,41.35
2018-03-04T06:23:47.863Z,40.38
2018-03-04T06:26:16.646Z,40.29
2018-03-04T06:28:45.685Z,40.01
2018-03-04T06:31:14.632Z,40.24
2018-03-04T06:33:43.707Z,41.72
2018-03-04T06:36:12.703Z,42.35
2018-03-04T06:38:41.812Z,42.87
2018-03-04T06:41:10.666Z,43.36
2018-03-04T06:43:39.616Z,43.73
2018-03-04T06:46:08.664Z,43.87
2018-03-04T06:48:37.710Z,42.38
2018-03-04T06:51:06.643Z,40.95
2018-03-04T06:53:35.641Z,40.28
2018-03-04T06:58:17.774Z,40.22
2018-03-04T07:00:46.731Z,40.45
2018-03-04T07:03:15.629Z,41.44
2018-03-04T07:05:44.687Z,42.79
2018-03-04T07:08:13.637Z,43.22
2018-03-04T07:10:42.619Z,43.39
2018-03-04T07:15:29.662Z,43.41
2018-03-04T07:17:58.649Z,41.87
2018-03-04T07:20:27.679Z,40.98
2018-03-04T07:22:56.752Z,40.62
2018-03-04T07:25:25.635Z,40.31
2018-03-04T07:27:54.678Z,40.49
2018-03-04T07:30:23.616Z,39.66
2018-03-04T07:32:52.619Z,41.08
2018-03-04T07:35:21.611Z,42.39
2018-03-04T07:37:50.649Z,42.97
2018-03-04T07:40:19.694Z,43.47
2018-03-04T07:42:48.631Z,43.84
2018-03-04T07:45:17.565Z,43.78
2018-03-04T07:49:33.607Z,41.31
2018-03-04T07:57:21.689Z,39.95
2018-03-04T08:00:25.413Z,40.37
2018-03-04T08:02:54.418Z,40.17
2018-03-04T08:05:23.641Z,42.35
2018-03-04T08:07:52.666Z,43.49
2018-03-04T08:10:21.629Z,43.93
2018-03-04T08:12:50.651Z,45.05
2018-03-04T08:17:39.419Z,44.20
2018-03-04T08:20:08.420Z,42.95
2018-03-04T08:22:37.639Z,42.02
2018-03-04T08:25:18.629Z,41.18
2018-03-04T08:27:59.424Z,40.13
2018-03-04T08:30:28.590Z,39.58
2018-03-04T08:32:57.623Z,40.14
2018-03-04T08:35:26.736Z,41.96
2018-03-04T08:37:55.635Z,42.89
2018-03-04T08:41:35.640Z,43.63
2018-03-04T08:50:01.624Z,42.31
2018-03-04T08:52:30.623Z,41.04
2018-03-04T08:54:59.681Z,40.46
2018-03-04T08:57:28.646Z,40.24
2018-03-04T08:59:57.693Z,40.18
2018-03-04T09:02:26.641Z,40.30
2018-03-04T09:04:55.627Z,41.06
2018-03-04T09:08:18.655Z,43.00
2018-03-04T09:10:47.660Z,43.31
2018-03-04T09:13:16.624Z,43.76
2018-03-04T09:15:45.640Z,44.22
2018-03-04T09:18:14.628Z,44.52
2018-03-04T09:20:43.624Z,44.43
2018-03-04T09:25:29.424Z,41.38
2018-03-04T09:27:58.425Z,40.67
2018-03-04T09:30:27.428Z,40.46
2018-03-04T09:32:56.427Z,40.38
2018-03-04T09:35:25.698Z,40.28
2018-03-04T09:37:54.628Z,40.75
2018-03-04T09:41:14.429Z,42.98
2018-03-04T09:43:43.405Z,43.93
2018-03-04T09:46:12.581Z,44.23
2018-03-04T09:48:41.627Z,44.37
2018-03-04T09:51:10.608Z,44.45
2018-03-04T09:53:39.607Z,43.27
2018-03-04T09:56:08.660Z,41.57
2018-03-04T10:01:20.728Z,40.51
2018-03-04T10:03:49.669Z,40.39
2018-03-04T10:06:18.679Z,40.43
2018-03-04T10:08:47.657Z,40.40
2018-03-04T10:11:16.617Z,42.20
2018-03-04T10:13:45.632Z,42.88
2018-03-04T10:18:34.611Z,43.34
2018-03-04T10:21:03.649Z,43.58
2018-03-04T10:23:32.684Z,43.68
2018-03-04T10:26:01.635Z,43.70
2018-03-04T10:28:30.691Z,41.52
2018-03-04T10:32:12.725Z,40.44
2018-03-04T10:34:41.655Z,39.98
2018-03-04T10:37:10.740Z,40.29
2018-03-04T10:39:39.708Z,40.28
2018-03-04T10:42:08.633Z,40.48
2018-03-04T10:44:37.705Z,41.95
2018-03-04T10:47:06.685Z,42.77
2018-03-04T10:49:35.651Z,43.41
2018-03-04T10:52:04.735Z,43.67
2018-03-04T10:54:33.615Z,43.67
2018-03-04T10:57:02.670Z,43.55
2018-03-04T10:59:31.671Z,41.90
2018-03-04T11:02:04.835Z,41.20
2018-03-04T11:05:28.153Z,40.76
2018-03-04T11:07:57.655Z,40.04
2018-03-04T11:10:26.710Z,39.75
2018-03-04T11:13:42.667Z,40.32
2018-03-04T11:16:11.635Z,41.77
2018-03-04T11:18:40.655Z,42.86
2018-03-04T11:21:11.516Z,43.22
2018-03-04T11:23:40.708Z,43.79
2018-03-04T11:26:10.470Z,43.93
2018-03-04T11:28:39.690Z,43.88
2018-03-04T11:31:08.729Z,42.51
2018-03-04T11:33:37.691Z,41.64
2018-03-04T11:38:54.676Z,40.58
2018-03-04T11:41:23.719Z,39.69
2018-03-04T11:43:52.663Z,39.54
2018-03-04T11:46:21.723Z,40.10
2018-03-04T11:48:50.675Z,41.75
2018-03-04T11:51:19.697Z,42.68
2018-03-04T11:53:48.663Z,43.13
2018-03-04T11:57:35.576Z,43.77
2018-03-04T12:00:04.659Z,43.46
2018-03-04T12:02:33.636Z,41.97
2018-03-04T12:05:02.864Z,40.60
2018-03-04T12:09:05.755Z,39.78
2018-03-04T12:11:34.693Z,39.53
2018-03-04T12:14:03.680Z,39.11
2018-03-04T12:16:32.644Z,38.83
2018-03-04T12:19:01.679Z,39.96
2018-03-04T12:21:30.739Z,40.98
2018-03-04T12:23:59.711Z,41.51
2018-03-04T12:26:28.681Z,41.90
2018-03-04T12:28:57.711Z,42.29
2018-03-04T12:31:26.699Z,42.33
2018-03-04T12:33:55.663Z,40.60
2018-03-04T12:37:10.684Z,39.49
2018-03-04T12:41:44.683Z,39.24
2018-03-04T12:44:13.694Z,39.32
2018-03-04T12:46:42.732Z,38.89
2018-03-04T12:49:11.696Z,39.25
2018-03-04T12:51:40.966Z,40.84
2018-03-04T12:54:09.181Z,41.63
2018-03-04T12:56:38.640Z,42.46
2018-03-04T12:59:07.755Z,42.52
2018-03-04T13:01:36.705Z,42.40
2018-03-04T13:06:17.054Z,41.69
2018-03-04T13:08:45.590Z,40.03
2018-03-04T13:11:14.692Z,39.43
2018-03-04T13:13:43.719Z,38.84
2018-03-04T13:16:12.732Z,38.77
2018-03-04T13:18:41.768Z,38.57
2018-03-04T13:21:10.749Z,39.40
2018-03-04T13:23:39.696Z,41.01
2018-03-04T13:26:08.698Z,41.91
2018-03-04T13:29:24.476Z,42.58
2018-03-04T13:31:54.428Z,42.83
2018-03-04T13:34:23.728Z,43.06
2018-03-04T13:36:52.654Z,42.03
2018-03-04T13:39:21.645Z,40.83
2018-03-04T13:41:50.710Z,40.21
2018-03-04T13:44:19.729Z,39.78
2018-03-04T13:46:48.687Z,39.43
2018-03-04T13:49:17.676Z,39.19
2018-03-04T13:51:46.653Z,40.89
2018-03-04T13:54:15.705Z,41.89
2018-03-04T13:58:30.695Z,42.61
2018-03-04T14:00:59.705Z,42.82
2018-03-04T14:03:28.666Z,42.92
2018-03-04T14:05:57.651Z,42.78
2018-03-04T14:08:26.657Z,42.09
2018-03-04T14:13:16.752Z,39.47
2018-03-04T14:15:45.649Z,39.42
2018-03-04T14:18:14.651Z,39.49
2018-03-04T14:20:43.722Z,39.79
2018-03-04T14:23:12.691Z,39.72
2018-03-04T14:25:41.721Z,41.01
2018-03-04T14:28:10.623Z,42.45
2018-03-04T14:30:39.679Z,43.98
2018-03-04T14:33:08.675Z,44.62
2018-03-04T14:35:37.693Z,44.86
2018-03-04T14:38:06.620Z,44.92
2018-03-04T14:40:35.623Z,44.34
2018-03-04T14:43:04.879Z,42.43
2018-03-04T14:45:33.660Z,41.46
2018-03-04T14:48:02.595Z,41.29
2018-03-04T14:50:31.655Z,41.45
2018-03-04T14:53:00.637Z,40.95
2018-03-04T14:55:29.668Z,41.74
2018-03-04T14:57:58.624Z,42.97
2018-03-04T15:00:27.643Z,43.35
2018-03-04T15:02:56.650Z,43.70
2018-03-04T15:05:25.634Z,43.96
2018-03-04T15:07:54.657Z,44.24
2018-03-04T15:10:23.643Z,44.18
2018-03-04T15:12:52.708Z,42.43
2018-03-04T15:15:21.635Z,41.63
2018-03-04T15:17:50.657Z,41.05
2018-03-04T15:20:19.632Z,40.42
2018-03-04T15:22:48.644Z,40.62
2018-03-04T15:25:17.628Z,40.67
2018-03-04T15:27:46.639Z,41.81
2018-03-04T15:30:15.760Z,42.79
2018-03-04T15:32:44.643Z,43.82
2018-03-04T15:35:13.655Z,44.16
2018-03-04T15:37:42.663Z,44.35
2018-03-04T15:40:11.727Z,44.71
2018-03-04T15:42:40.683Z,43.96
2018-03-04T15:47:27.518Z,41.15
2018-03-04T15:49:56.608Z,40.93
2018-03-04T15:52:25.703Z,40.77
2018-03-04T15:54:54.651Z,40.64
2018-03-04T15:57:23.685Z,40.38
2018-03-04T15:59:52.649Z,41.74
2018-03-04T16:03:41.727Z,43.17
2018-03-04T16:10:59.692Z,44.54
2018-03-04T16:13:28.697Z,43.92
2018-03-04T16:15:57.741Z,41.86
2018-03-04T16:18:27.580Z,40.28
2018-03-04T16:23:10.549Z,35.80
2018-03-04T16:25:39.920Z,34.42
2018-03-04T16:28:08.529Z,32.83
2018-03-04T16:30:37.707Z,32.42
2018-03-04T16:33:06.764Z,31.53
2018-03-04T16:35:35.890Z,30.46
2018-03-04T16:38:04.734Z,32.04
2018-03-04T16:40:33.771Z,33.24
2018-03-04T16:43:02.775Z,34.04
2018-03-04T16:45:31.758Z,34.73
2018-03-04T16:48:01.333Z,35.80
2018-03-04T16:50:30.519Z,35.86
2018-03-04T16:54:32.867Z,34.24
2018-03-04T16:57:02.340Z,33.75
2018-03-04T17:01:30.760Z,33.31
2018-03-04T17:03:59.711Z,33.36
2018-03-04T17:06:29.345Z,33.18
2018-03-04T17:08:58.708Z,33.93
2018-03-04T17:11:27.701Z,35.84
2018-03-04T17:13:56.760Z,36.72
2018-03-04T17:16:25.764Z,37.42
2018-03-04T17:18:55.296Z,37.96
2018-03-04T17:21:24.656Z,38.02
2018-03-04T17:23:53.720Z,37.15
2018-03-04T17:26:22.807Z,35.59
2018-03-04T17:28:51.883Z,35.78
2018-03-04T17:31:21.318Z,35.64
2018-03-04T17:33:50.721Z,35.23
2018-03-04T17:36:20.167Z,34.82
2018-03-04T17:38:49.700Z,35.17
2018-03-04T17:42:20.715Z,36.21
2018-03-04T17:44:49.713Z,37.42
2018-03-04T17:48:36.746Z,38.39
2018-03-04T17:51:06.699Z,38.39
2018-03-04T17:53:36.204Z,38.67
2018-03-04T17:57:27.707Z,38.50
2018-03-04T17:59:57.729Z,36.69
2018-03-04T18:02:26.689Z,36.21
2018-03-04T18:04:55.651Z,36.41
2018-03-04T18:07:24.681Z,36.13
2018-03-04T18:09:53.695Z,35.56
2018-03-04T18:12:22.744Z,35.42
2018-03-04T18:14:51.771Z,36.03
2018-03-04T18:17:20.690Z,36.79
2018-03-04T18:19:49.667Z,38.06
2018-03-04T18:22:18.758Z,40.18
2018-03-04T18:24:47.648Z,40.50
2018-03-04T18:27:16.625Z,40.82
2018-03-04T18:29:46.200Z,40.83
2018-03-04T18:32:15.623Z,39.63
2018-03-04T18:34:44.615Z,38.54
2018-03-04T18:37:13.626Z,37.43
2018-03-04T18:39:42.747Z,36.94
2018-03-04T18:42:11.855Z,36.44
2018-03-04T18:44:40.690Z,36.36
2018-03-04T18:47:10.050Z,36.09
2018-03-04T18:49:39.624Z,38.00
2018-03-04T18:52:08.623Z,38.91
2018-03-04T18:54:37.623Z,39.31
2018-03-04T18:57:06.602Z,39.58
2018-03-04T19:01:44.657Z,40.02
2018-03-04T19:04:13.660Z,39.87
2018-03-04T19:06:42.684Z,38.49
2018-03-04T19:09:11.660Z,37.65
2018-03-04T19:11:40.578Z,36.57
2018-03-04T19:14:09.633Z,36.75
2018-03-04T19:16:39.047Z,36.61
2018-03-04T19:19:08.660Z,36.63
2018-03-04T19:21:37.687Z,36.63
2018-03-04T19:24:06.673Z,37.66
2018-03-04T19:26:35.660Z,39.41
2018-03-04T19:29:04.757Z,40.13
2018-03-04T19:31:33.707Z,40.29
2018-03-04T19:34:02.667Z,40.40
2018-03-04T19:36:31.688Z,40.36
2018-03-04T19:39:00.764Z,39.00
2018-03-04T19:41:29.779Z,37.69
2018-03-04T19:43:58.661Z,37.04
2018-03-04T19:46:27.678Z,37.26
2018-03-04T19:48:56.631Z,37.34
2018-03-04T19:51:25.661Z,37.41
2018-03-04T19:53:54.641Z,36.86
2018-03-04T19:56:23.623Z,37.48
2018-03-04T19:58:52.679Z,38.95
2018-03-04T20:01:21.618Z,40.23
2018-03-04T20:03:50.697Z,41.11
2018-03-04T20:06:20.151Z,41.66
2018-03-04T20:08:49.434Z,42.53
2018-03-04T20:13:12.647Z,41.19
2018-03-04T20:15:41.651Z,39.11
2018-03-04T20:18:10.648Z,38.49
2018-03-04T20:20:39.671Z,38.15
2018-03-04T20:23:08.775Z,37.72
2018-03-04T20:25:37.687Z,37.70
2018-03-04T20:28:06.675Z,37.39
2018-03-04T20:30:35.687Z,37.19
2018-03-04T20:33:04.755Z,38.78
2018-03-04T20:35:33.857Z,39.65
2018-03-04T20:38:02.699Z,40.15
2018-03-04T20:40:31.691Z,40.29
2018-03-04T20:43:01.178Z,40.56
2018-03-04T20:45:30.160Z,40.79
2018-03-04T20:49:57.517Z,38.55
2018-03-04T20:52:26.709Z,37.99
2018-03-04T20:54:55.704Z,37.60
2018-03-04T20:57:24.687Z,37.33
2018-03-04T20:59:53.682Z,37.37
2018-03-04T21:02:22.752Z,37.43
2018-03-04T21:04:51.740Z,38.76
2018-03-04T21:10:57.780Z,40.02
2018-03-04T21:13:26.699Z,40.50
2018-03-04T21:15:55.719Z,40.75
2018-03-04T21:18:25.573Z,40.31
2018-03-04T21:20:54.661Z,38.66
2018-03-04T21:23:23.677Z,38.11
2018-03-04T21:25:52.635Z,37.98
2018-03-04T21:28:21.636Z,37.95
2018-03-04T21:30:50.671Z,37.81
2018-03-04T21:33:19.632Z,37.44
2018-03-04T21:35:48.637Z,38.09
2018-03-04T21:38:17.635Z,39.41
2018-03-04T21:42:48.531Z,40.19
2018-03-04T21:45:17.656Z,40.23
2018-03-04T21:47:46.647Z,40.24
2018-03-04T21:50:15.661Z,40.24
2018-03-04T21:52:44.692Z,39.15
2018-03-04T21:55:13.712Z,38.08
2018-03-04T21:59:29.670Z,37.52
2018-03-04T22:01:58.640Z,37.37
2018-03-04T22:04:27.651Z,37.58
2018-03-04T22:06:56.687Z,37.40
2018-03-04T22:09:25.673Z,38.43
2018-03-04T22:11:54.676Z,39.36
2018-03-04T22:14:23.429Z,39.68
2018-03-04T22:16:52.639Z,39.89
2018-03-04T22:19:21.657Z,40.05
2018-03-04T22:21:50.655Z,40.36
2018-03-04T22:26:32.676Z,38.40
2018-03-04T22:29:01.646Z,37.57
2018-03-04T22:31:30.676Z,37.43
2018-03-04T22:33:59.644Z,37.28
2018-03-04T22:36:28.650Z,37.02
2018-03-04T22:38:58.182Z,37.59
2018-03-04T22:41:27.426Z,38.80
2018-03-04T22:43:56.654Z,39.37
2018-03-04T22:46:25.698Z,39.71
2018-03-04T22:48:54.640Z,39.99
2018-03-04T22:51:23.670Z,40.51
2018-03-04T22:53:52.640Z,40.55
2018-03-04T22:56:21.679Z,39.25
2018-03-04T22:58:50.657Z,38.34
2018-03-04T23:01:19.682Z,37.92
2018-03-04T23:03:48.622Z,37.99
2018-03-04T23:06:17.623Z,37.96
2018-03-04T23:08:46.599Z,37.84
2018-03-04T23:11:15.623Z,38.44
2018-03-04T23:13:44.649Z,39.45
2018-03-04T23:16:13.623Z,39.77
2018-03-04T23:18:52.669Z,40.20
2018-03-04T23:21:21.635Z,40.74
2018-03-04T23:23:50.597Z,40.79
2018-03-04T23:26:19.669Z,39.56
2018-03-04T23:28:48.687Z,38.66
2018-03-04T23:31:17.636Z,37.94
2018-03-04T23:33:46.607Z,37.90
2018-03-04T23:36:15.623Z,37.63
2018-03-04T23:38:44.652Z,37.35
2018-03-04T23:41:14.439Z,38.36
2018-03-04T23:45:12.154Z,39.54
2018-03-04T23:50:11.686Z,40.68
2018-03-04T23:52:40.751Z,40.77
2018-03-04T23:55:09.677Z,40.82
2018-03-04T23:57:38.648Z,39.48
